Manchaug, Massachusetts
Current Conditions -  °F | °C
As of 11:54 AM on Saturday 25 Oct 2014 (Local Time) from KORH Reporting Station
Clear Clear  
Wind Chill: 54°   Ceiling: Unl
Heat Index: 54°   Visibility: 10mi
Dew Point: 40°   Wind: 13mph
Humidity: 59%   Direction: 280°W
Pressure: 29.72"   Gusts: NA
Location:  42.09°N, 71.75°W
Report Text: KORH 251554Z 28011KT 10SM CLR 12/04 A2972 RMK AO2 SLP068 T01220044
Loading
Personal Weather Stations






























Interactive Weather Map
Tropical Storm Tracking
New forecast layout! Learn more

10-Day Weather Forecast

Advertisements
Track Severe Weather on mobile